sensor_id;sensor_type;location;lat;lon;timestamp;temperature;humidity
11221;DHT22;8517;53.546;10.104;2023-04-24T00:01:24;14.90;99.90
11221;DHT22;8517;53.546;10.104;2023-04-24T00:03:52;14.80;99.90
11221;DHT22;8517;53.546;10.104;2023-04-24T00:06:19;14.80;99.90
11221;DHT22;8517;53.546;10.104;2023-04-24T00:08:46;14.80;99.90
11221;DHT22;8517;53.546;10.104;2023-04-24T00:11:12;14.80;99.90
11221;DHT22;8517;53.546;10.104;2023-04-24T00:13:39;14.70;99.90
11221;DHT22;8517;53.546;10.104;2023-04-24T00:16:06;14.70;99.90
11221;DHT22;8517;53.546;10.104;2023-04-24T00:18:33;14.70;99.90
11221;DHT22;8517;53.546;10.104;2023-04-24T00:21:01;14.70;99.90
11221;DHT22;8517;53.546;10.104;2023-04-24T00:23:28;14.70;99.90
11221;DHT22;8517;53.546;10.104;2023-04-24T00:25:55;14.70;99.90
11221;DHT22;8517;53.546;10.104;2023-04-24T00:28:21;14.70;99.90
11221;DHT22;8517;53.546;10.104;2023-04-24T00:30:48;14.70;99.90
11221;DHT22;8517;53.546;10.104;2023-04-24T00:33:15;14.70;99.90
11221;DHT22;8517;53.546;10.104;2023-04-24T00:35:42;14.70;99.90
11221;DHT22;8517;53.546;10.104;2023-04-24T00:38:10;14.70;99.90
11221;DHT22;8517;53.546;10.104;2023-04-24T00:40:37;14.70;99.90
11221;DHT22;8517;53.546;10.104;2023-04-24T00:43:04;14.70;99.90
11221;DHT22;8517;53.546;10.104;2023-04-24T00:45:31;14.70;99.90
11221;DHT22;8517;53.546;10.104;2023-04-24T00:47:58;14.70;99.90
11221;DHT22;8517;53.546;10.104;2023-04-24T00:50:26;14.70;99.90
11221;DHT22;8517;53.546;10.104;2023-04-24T00:52:53;14.70;99.90
11221;DHT22;8517;53.546;10.104;2023-04-24T00:55:21;14.70;99.90
11221;DHT22;8517;53.546;10.104;2023-04-24T00:57:48;14.70;99.90
11221;DHT22;8517;53.546;10.104;2023-04-24T01:00:16;14.70;99.90
11221;DHT22;8517;53.546;10.104;2023-04-24T01:02:44;14.60;99.90
11221;DHT22;8517;53.546;10.104;2023-04-24T01:05:11;14.60;99.90
11221;DHT22;8517;53.546;10.104;2023-04-24T01:07:39;14.60;99.90
11221;DHT22;8517;53.546;10.104;2023-04-24T01:10:09;14.60;99.90
11221;DHT22;8517;53.546;10.104;2023-04-24T01:12:38;14.60;99.90
11221;DHT22;8517;53.546;10.104;2023-04-24T01:15:06;14.60;99.90
11221;DHT22;8517;53.546;10.104;2023-04-24T01:17:33;14.60;99.90
11221;DHT22;8517;53.546;10.104;2023-04-24T01:20:01;14.60;99.90
11221;DHT22;8517;53.546;10.104;2023-04-24T01:22:33;14.60;99.90
11221;DHT22;8517;53.546;10.104;2023-04-24T01:25:00;14.60;99.90
11221;DHT22;8517;53.546;10.104;2023-04-24T01:27:27;14.50;99.90
11221;DHT22;8517;53.546;10.104;2023-04-24T01:29:54;14.50;99.90
11221;DHT22;8517;53.546;10.104;2023-04-24T01:32:21;14.50;99.90
11221;DHT22;8517;53.546;10.104;2023-04-24T01:34:48;14.50;99.90
11221;DHT22;8517;53.546;10.104;2023-04-24T01:37:15;14.50;99.90
11221;DHT22;8517;53.546;10.104;2023-04-24T01:39:43;14.50;99.90
11221;DHT22;8517;53.546;10.104;2023-04-24T01:42:10;14.50;99.90
11221;DHT22;8517;53.546;10.104;2023-04-24T01:44:38;14.50;99.90
11221;DHT22;8517;53.546;10.104;2023-04-24T01:47:05;14.40;99.90
11221;DHT22;8517;53.546;10.104;2023-04-24T01:49:32;14.40;99.90
11221;DHT22;8517;53.546;10.104;2023-04-24T01:51:59;14.40;99.90
11221;DHT22;8517;53.546;10.104;2023-04-24T01:54:26;14.40;99.90
11221;DHT22;8517;53.546;10.104;2023-04-24T01:56:54;14.40;99.90
11221;DHT22;8517;53.546;10.104;2023-04-24T01:59:21;14.40;99.90
11221;DHT22;8517;53.546;10.104;2023-04-24T02:01:49;14.40;99.90
11221;DHT22;8517;53.546;10.104;2023-04-24T02:04:16;14.30;99.90
11221;DHT22;8517;53.546;10.104;2023-04-24T02:06:43;14.30;99.90
11221;DHT22;8517;53.546;10.104;2023-04-24T02:09:10;14.30;99.90
11221;DHT22;8517;53.546;10.104;2023-04-24T02:11:37;14.30;99.90
11221;DHT22;8517;53.546;10.104;2023-04-24T02:14:05;14.30;99.90
11221;DHT22;8517;53.546;10.104;2023-04-24T02:16:32;14.30;99.90
11221;DHT22;8517;53.546;10.104;2023-04-24T02:18:59;14.30;99.90
11221;DHT22;8517;53.546;10.104;2023-04-24T02:21:26;14.30;99.90
11221;DHT22;8517;53.546;10.104;2023-04-24T02:23:53;14.30;99.90
11221;DHT22;8517;53.546;10.104;2023-04-24T02:26:20;14.30;99.90
11221;DHT22;8517;53.546;10.104;2023-04-24T02:28:47;14.20;99.90
11221;DHT22;8517;53.546;10.104;2023-04-24T02:31:15;14.20;99.90
11221;DHT22;8517;53.546;10.104;2023-04-24T02:33:42;14.20;99.90
11221;DHT22;8517;53.546;10.104;2023-04-24T02:36:09;14.20;99.90
11221;DHT22;8517;53.546;10.104;2023-04-24T02:38:36;14.20;99.90
11221;DHT22;8517;53.546;10.104;2023-04-24T02:41:03;14.10;99.90
11221;DHT22;8517;53.546;10.104;2023-04-24T02:43:31;14.10;99.90
11221;DHT22;8517;53.546;10.104;2023-04-24T02:45:58;14.10;99.90
11221;DHT22;8517;53.546;10.104;2023-04-24T02:48:26;14.10;99.90
11221;DHT22;8517;53.546;10.104;2023-04-24T02:50:53;14.00;99.90
11221;DHT22;8517;53.546;10.104;2023-04-24T02:53:20;14.10;99.90
11221;DHT22;8517;53.546;10.104;2023-04-24T02:55:47;14.00;99.90
11221;DHT22;8517;53.546;10.104;2023-04-24T02:58:13;14.00;99.90
11221;DHT22;8517;53.546;10.104;2023-04-24T03:00:41;14.00;99.90
11221;DHT22;8517;53.546;10.104;2023-04-24T03:03:09;14.00;99.90
11221;DHT22;8517;53.546;10.104;2023-04-24T03:05:38;14.00;99.90
11221;DHT22;8517;53.546;10.104;2023-04-24T03:08:05;13.90;99.90
11221;DHT22;8517;53.546;10.104;2023-04-24T03:10:31;13.90;99.90
11221;DHT22;8517;53.546;10.104;2023-04-24T03:12:58;13.90;99.90
11221;DHT22;8517;53.546;10.104;2023-04-24T03:15:25;13.80;99.90
11221;DHT22;8517;53.546;10.104;2023-04-24T03:17:52;13.80;99.90
11221;DHT22;8517;53.546;10.104;2023-04-24T03:20:19;13.80;99.90
11221;DHT22;8517;53.546;10.104;2023-04-24T03:22:48;13.80;99.90
11221;DHT22;8517;53.546;10.104;2023-04-24T03:25:14;13.80;99.90
11221;DHT22;8517;53.546;10.104;2023-04-24T03:27:41;13.80;99.90
11221;DHT22;8517;53.546;10.104;2023-04-24T03:30:08;13.80;99.90
11221;DHT22;8517;53.546;10.104;2023-04-24T03:32:35;13.80;99.90
11221;DHT22;8517;53.546;10.104;2023-04-24T03:35:05;13.70;99.90
11221;DHT22;8517;53.546;10.104;2023-04-24T03:37:32;13.70;99.90
11221;DHT22;8517;53.546;10.104;2023-04-24T03:40:00;13.70;99.90
11221;DHT22;8517;53.546;10.104;2023-04-24T03:42:27;13.60;99.90
11221;DHT22;8517;53.546;10.104;2023-04-24T03:44:54;13.60;99.90
11221;DHT22;8517;53.546;10.104;2023-04-24T03:47:21;13.60;99.90
11221;DHT22;8517;53.546;10.104;2023-04-24T03:49:47;13.60;99.90
11221;DHT22;8517;53.546;10.104;2023-04-24T03:52:14;13.60;99.90
11221;DHT22;8517;53.546;10.104;2023-04-24T03:54:41;13.50;99.90
11221;DHT22;8517;53.546;10.104;2023-04-24T03:57:09;13.60;99.90
11221;DHT22;8517;53.546;10.104;2023-04-24T03:59:36;13.50;99.90
11221;DHT22;8517;53.546;10.104;2023-04-24T04:02:02;13.50;99.90
11221;DHT22;8517;53.546;10.104;2023-04-24T04:04:30;13.50;99.90
11221;DHT22;8517;53.546;10.104;2023-04-24T04:06:56;13.50;99.90
11221;DHT22;8517;53.546;10.104;2023-04-24T04:09:26;13.40;99.90
11221;DHT22;8517;53.546;10.104;2023-04-24T04:11:53;13.40;99.90
11221;DHT22;8517;53.546;10.104;2023-04-24T04:14:22;13.40;99.90
11221;DHT22;8517;53.546;10.104;2023-04-24T04:16:48;13.30;99.90
11221;DHT22;8517;53.546;10.104;2023-04-24T04:19:15;13.30;99.90
11221;DHT22;8517;53.546;10.104;2023-04-24T04:21:42;13.30;99.90
11221;DHT22;8517;53.546;10.104;2023-04-24T04:24:11;13.30;99.90
11221;DHT22;8517;53.546;10.104;2023-04-24T04:26:38;13.30;99.90
11221;DHT22;8517;53.546;10.104;2023-04-24T04:29:06;13.30;99.90
11221;DHT22;8517;53.546;10.104;2023-04-24T04:31:34;13.30;99.90
11221;DHT22;8517;53.546;10.104;2023-04-24T04:34:01;13.20;99.90
11221;DHT22;8517;53.546;10.104;2023-04-24T04:36:28;13.30;99.90
11221;DHT22;8517;53.546;10.104;2023-04-24T04:38:55;13.20;99.90
11221;DHT22;8517;53.546;10.104;2023-04-24T04:41:22;13.20;99.90
11221;DHT22;8517;53.546;10.104;2023-04-24T04:43:49;13.20;99.90
11221;DHT22;8517;53.546;10.104;2023-04-24T04:46:16;13.20;99.90
11221;DHT22;8517;53.546;10.104;2023-04-24T04:48:44;13.20;99.90
11221;DHT22;8517;53.546;10.104;2023-04-24T04:51:11;13.20;99.90
11221;DHT22;8517;53.546;10.104;2023-04-24T04:53:38;13.20;99.90
11221;DHT22;8517;53.546;10.104;2023-04-24T04:56:05;13.20;99.90
11221;DHT22;8517;53.546;10.104;2023-04-24T04:58:32;13.20;99.90
11221;DHT22;8517;53.546;10.104;2023-04-24T05:00:58;13.30;99.90
11221;DHT22;8517;53.546;10.104;2023-04-24T05:03:25;13.30;99.90
11221;DHT22;8517;53.546;10.104;2023-04-24T05:05:53;13.40;99.90
11221;DHT22;8517;53.546;10.104;2023-04-24T05:08:20;13.70;99.90
11221;DHT22;8517;53.546;10.104;2023-04-24T05:10:47;13.90;99.90
11221;DHT22;8517;53.546;10.104;2023-04-24T05:13:14;14.20;99.90
11221;DHT22;8517;53.546;10.104;2023-04-24T05:15:41;14.50;99.90
11221;DHT22;8517;53.546;10.104;2023-04-24T05:18:08;14.70;99.90
11221;DHT22;8517;53.546;10.104;2023-04-24T05:20:34;15.00;99.90
11221;DHT22;8517;53.546;10.104;2023-04-24T05:23:03;15.20;99.90
11221;DHT22;8517;53.546;10.104;2023-04-24T05:25:29;15.40;99.90
11221;DHT22;8517;53.546;10.104;2023-04-24T05:27:57;15.60;99.90
11221;DHT22;8517;53.546;10.104;2023-04-24T05:30:24;15.90;99.90
11221;DHT22;8517;53.546;10.104;2023-04-24T05:32:52;16.10;99.90
11221;DHT22;8517;53.546;10.104;2023-04-24T05:35:19;16.30;99.90
11221;DHT22;8517;53.546;10.104;2023-04-24T05:37:46;16.40;99.90
11221;DHT22;8517;53.546;10.104;2023-04-24T05:40:14;16.50;99.90
11221;DHT22;8517;53.546;10.104;2023-04-24T05:42:41;16.60;99.90
11221;DHT22;8517;53.546;10.104;2023-04-24T05:45:08;16.80;99.90
11221;DHT22;8517;53.546;10.104;2023-04-24T05:47:55;17.10;99.90
11221;DHT22;8517;53.546;10.104;2023-04-24T05:50:22;17.30;99.90
11221;DHT22;8517;53.546;10.104;2023-04-24T05:52:50;17.50;99.90
11221;DHT22;8517;53.546;10.104;2023-04-24T05:55:21;17.60;99.90
11221;DHT22;8517;53.546;10.104;2023-04-24T05:57:48;17.80;99.90
11221;DHT22;8517;53.546;10.104;2023-04-24T06:00:15;18.00;99.90
11221;DHT22;8517;53.546;10.104;2023-04-24T06:02:43;18.10;99.90
11221;DHT22;8517;53.546;10.104;2023-04-24T06:05:10;18.30;99.90
11221;DHT22;8517;53.546;10.104;2023-04-24T06:07:37;18.40;99.90
11221;DHT22;8517;53.546;10.104;2023-04-24T06:10:06;18.50;99.90
11221;DHT22;8517;53.546;10.104;2023-04-24T06:12:34;18.60;99.90
11221;DHT22;8517;53.546;10.104;2023-04-24T06:15:02;18.80;99.90
11221;DHT22;8517;53.546;10.104;2023-04-24T06:17:41;19.00;99.90
11221;DHT22;8517;53.546;10.104;2023-04-24T06:20:16;19.20;99.90
11221;DHT22;8517;53.546;10.104;2023-04-24T06:22:43;19.40;99.90
11221;DHT22;8517;53.546;10.104;2023-04-24T06:25:25;19.40;99.90
11221;DHT22;8517;53.546;10.104;2023-04-24T06:27:56;19.50;99.90
11221;DHT22;8517;53.546;10.104;2023-04-24T06:30:23;19.60;99.90
11221;DHT22;8517;53.546;10.104;2023-04-24T06:32:50;19.70;99.90
11221;DHT22;8517;53.546;10.104;2023-04-24T06:35:17;19.70;99.90
11221;DHT22;8517;53.546;10.104;2023-04-24T06:37:44;19.80;99.90
11221;DHT22;8517;53.546;10.104;2023-04-24T06:40:11;19.90;99.90
11221;DHT22;8517;53.546;10.104;2023-04-24T06:42:38;19.90;99.90
11221;DHT22;8517;53.546;10.104;2023-04-24T06:45:08;20.10;99.90
11221;DHT22;8517;53.546;10.104;2023-04-24T06:47:37;20.20;99.90
11221;DHT22;8517;53.546;10.104;2023-04-24T06:50:06;20.40;99.90
11221;DHT22;8517;53.546;10.104;2023-04-24T06:52:33;20.50;99.90
11221;DHT22;8517;53.546;10.104;2023-04-24T06:55:06;20.50;99.90
11221;DHT22;8517;53.546;10.104;2023-04-24T06:57:36;20.50;99.90
11221;DHT22;8517;53.546;10.104;2023-04-24T07:00:04;20.50;99.90
11221;DHT22;8517;53.546;10.104;2023-04-24T07:02:34;20.60;99.90
11221;DHT22;8517;53.546;10.104;2023-04-24T07:05:00;20.60;99.90
11221;DHT22;8517;53.546;10.104;2023-04-24T07:07:28;20.60;99.90
11221;DHT22;8517;53.546;10.104;2023-04-24T07:09:55;20.60;99.90
11221;DHT22;8517;53.546;10.104;2023-04-24T07:12:22;20.70;99.90
11221;DHT22;8517;53.546;10.104;2023-04-24T07:14:50;20.60;99.90
11221;DHT22;8517;53.546;10.104;2023-04-24T07:17:16;20.50;99.90
11221;DHT22;8517;53.546;10.104;2023-04-24T07:19:45;20.40;99.90
11221;DHT22;8517;53.546;10.104;2023-04-24T07:22:12;20.20;99.90
11221;DHT22;8517;53.546;10.104;2023-04-24T07:24:42;20.00;99.90
11221;DHT22;8517;53.546;10.104;2023-04-24T07:27:11;19.90;99.90
11221;DHT22;8517;53.546;10.104;2023-04-24T07:29:40;19.80;99.90
11221;DHT22;8517;53.546;10.104;2023-04-24T07:32:07;19.70;99.90
11221;DHT22;8517;53.546;10.104;2023-04-24T07:34:34;19.70;99.90
11221;DHT22;8517;53.546;10.104;2023-04-24T07:37:03;19.60;99.90
11221;DHT22;8517;53.546;10.104;2023-04-24T07:39:29;19.70;99.90
11221;DHT22;8517;53.546;10.104;2023-04-24T07:41:57;19.70;99.90
11221;DHT22;8517;53.546;10.104;2023-04-24T07:44:24;19.60;99.90
11221;DHT22;8517;53.546;10.104;2023-04-24T07:46:51;19.40;99.90
11221;DHT22;8517;53.546;10.104;2023-04-24T07:49:18;19.20;99.90
11221;DHT22;8517;53.546;10.104;2023-04-24T07:51:45;19.20;99.90
11221;DHT22;8517;53.546;10.104;2023-04-24T07:54:13;19.20;99.90
11221;DHT22;8517;53.546;10.104;2023-04-24T07:56:41;19.20;99.90
11221;DHT22;8517;53.546;10.104;2023-04-24T07:59:08;19.20;99.90
11221;DHT22;8517;53.546;10.104;2023-04-24T08:01:35;19.00;99.90
11221;DHT22;8517;53.546;10.104;2023-04-24T08:04:02;18.80;99.90
11221;DHT22;8517;53.546;10.104;2023-04-24T08:06:29;18.60;99.90
11221;DHT22;8517;53.546;10.104;2023-04-24T08:08:57;18.50;99.90
11221;DHT22;8517;53.546;10.104;2023-04-24T08:11:26;18.40;99.90
11221;DHT22;8517;53.546;10.104;2023-04-24T08:13:54;18.40;99.90
11221;DHT22;8517;53.546;10.104;2023-04-24T08:16:21;18.40;99.90
11221;DHT22;8517;53.546;10.104;2023-04-24T08:18:49;18.40;99.90
11221;DHT22;8517;53.546;10.104;2023-04-24T08:21:16;18.30;99.90
11221;DHT22;8517;53.546;10.104;2023-04-24T08:23:44;18.30;99.90
11221;DHT22;8517;53.546;10.104;2023-04-24T08:26:11;18.30;99.90
11221;DHT22;8517;53.546;10.104;2023-04-24T08:28:39;18.10;99.90
11221;DHT22;8517;53.546;10.104;2023-04-24T08:31:06;17.90;99.90
11221;DHT22;8517;53.546;10.104;2023-04-24T08:33:33;17.80;99.90
11221;DHT22;8517;53.546;10.104;2023-04-24T08:36:01;17.60;99.90
11221;DHT22;8517;53.546;10.104;2023-04-24T08:38:28;17.50;99.90
11221;DHT22;8517;53.546;10.104;2023-04-24T08:40:55;17.30;99.90
11221;DHT22;8517;53.546;10.104;2023-04-24T08:43:23;17.10;99.90
11221;DHT22;8517;53.546;10.104;2023-04-24T08:45:51;16.90;99.90
11221;DHT22;8517;53.546;10.104;2023-04-24T08:48:18;16.80;99.90
11221;DHT22;8517;53.546;10.104;2023-04-24T08:50:48;16.80;99.90
11221;DHT22;8517;53.546;10.104;2023-04-24T08:53:17;16.60;99.90
11221;DHT22;8517;53.546;10.104;2023-04-24T08:55:47;16.50;99.90
11221;DHT22;8517;53.546;10.104;2023-04-24T08:58:16;16.40;99.90
11221;DHT22;8517;53.546;10.104;2023-04-24T09:00:43;16.40;99.90
11221;DHT22;8517;53.546;10.104;2023-04-24T09:03:14;16.40;99.90
11221;DHT22;8517;53.546;10.104;2023-04-24T09:05:42;16.40;99.90
11221;DHT22;8517;53.546;10.104;2023-04-24T09:08:13;16.40;99.90
11221;DHT22;8517;53.546;10.104;2023-04-24T09:10:41;16.40;99.90
11221;DHT22;8517;53.546;10.104;2023-04-24T09:13:08;16.40;99.90
11221;DHT22;8517;53.546;10.104;2023-04-24T09:15:35;16.40;99.90
11221;DHT22;8517;53.546;10.104;2023-04-24T09:18:02;16.30;99.90
11221;DHT22;8517;53.546;10.104;2023-04-24T09:20:31;16.30;99.90
11221;DHT22;8517;53.546;10.104;2023-04-24T09:22:58;16.30;99.90
11221;DHT22;8517;53.546;10.104;2023-04-24T09:25:31;16.30;99.90
11221;DHT22;8517;53.546;10.104;2023-04-24T09:28:01;16.20;99.90
11221;DHT22;8517;53.546;10.104;2023-04-24T09:30:28;16.10;99.90
11221;DHT22;8517;53.546;10.104;2023-04-24T09:33:10;16.10;99.90
11221;DHT22;8517;53.546;10.104;2023-04-24T09:35:41;16.10;99.90
11221;DHT22;8517;53.546;10.104;2023-04-24T09:38:08;16.00;99.90
11221;DHT22;8517;53.546;10.104;2023-04-24T09:40:35;16.00;99.90
11221;DHT22;8517;53.546;10.104;2023-04-24T09:43:02;16.00;99.90
11221;DHT22;8517;53.546;10.104;2023-04-24T09:45:35;16.00;99.90
11221;DHT22;8517;53.546;10.104;2023-04-24T09:48:02;16.00;99.90
11221;DHT22;8517;53.546;10.104;2023-04-24T09:50:31;16.00;99.90
11221;DHT22;8517;53.546;10.104;2023-04-24T09:53:03;16.00;99.90
11221;DHT22;8517;53.546;10.104;2023-04-24T09:55:30;15.90;99.90
11221;DHT22;8517;53.546;10.104;2023-04-24T09:57:59;15.90;99.90
11221;DHT22;8517;53.546;10.104;2023-04-24T10:00:28;15.90;99.90
11221;DHT22;8517;53.546;10.104;2023-04-24T10:02:56;16.00;99.90
11221;DHT22;8517;53.546;10.104;2023-04-24T10:05:24;16.10;99.90
11221;DHT22;8517;53.546;10.104;2023-04-24T10:07:56;16.20;99.90
11221;DHT22;8517;53.546;10.104;2023-04-24T10:10:25;16.20;99.90
11221;DHT22;8517;53.546;10.104;2023-04-24T10:12:52;16.40;99.90
11221;DHT22;8517;53.546;10.104;2023-04-24T10:15:20;16.50;99.90
11221;DHT22;8517;53.546;10.104;2023-04-24T10:17:48;16.60;99.90
11221;DHT22;8517;53.546;10.104;2023-04-24T10:20:18;16.70;99.90
11221;DHT22;8517;53.546;10.104;2023-04-24T10:22:47;16.70;99.90
11221;DHT22;8517;53.546;10.104;2023-04-24T10:25:16;16.70;99.90
11221;DHT22;8517;53.546;10.104;2023-04-24T10:27:46;16.70;99.90
11221;DHT22;8517;53.546;10.104;2023-04-24T10:30:13;16.60;99.90
11221;DHT22;8517;53.546;10.104;2023-04-24T10:32:40;16.50;99.90
11221;DHT22;8517;53.546;10.104;2023-04-24T10:35:08;16.50;99.90
11221;DHT22;8517;53.546;10.104;2023-04-24T10:37:37;16.50;99.90
11221;DHT22;8517;53.546;10.104;2023-04-24T10:40:06;16.30;99.90
11221;DHT22;8517;53.546;10.104;2023-04-24T10:42:34;16.30;99.90
11221;DHT22;8517;53.546;10.104;2023-04-24T10:45:06;16.20;99.90
11221;DHT22;8517;53.546;10.104;2023-04-24T10:47:39;16.10;99.90
11221;DHT22;8517;53.546;10.104;2023-04-24T10:50:08;16.10;99.90
11221;DHT22;8517;53.546;10.104;2023-04-24T10:52:45;16.00;99.90
11221;DHT22;8517;53.546;10.104;2023-04-24T10:55:13;15.90;99.90
11221;DHT22;8517;53.546;10.104;2023-04-24T10:57:40;15.90;99.90
11221;DHT22;8517;53.546;10.104;2023-04-24T11:00:28;15.80;99.90
11221;DHT22;8517;53.546;10.104;2023-04-24T11:02:55;15.70;99.90
11221;DHT22;8517;53.546;10.104;2023-04-24T11:05:23;15.70;99.90
11221;DHT22;8517;53.546;10.104;2023-04-24T11:08:15;15.80;99.90
11221;DHT22;8517;53.546;10.104;2023-04-24T11:10:46;15.90;99.90
11221;DHT22;8517;53.546;10.104;2023-04-24T11:13:17;16.00;99.90
11221;DHT22;8517;53.546;10.104;2023-04-24T11:15:43;16.00;99.90
11221;DHT22;8517;53.546;10.104;2023-04-24T11:18:13;16.10;99.90
11221;DHT22;8517;53.546;10.104;2023-04-24T11:20:42;16.10;99.90
11221;DHT22;8517;53.546;10.104;2023-04-24T11:23:26;16.20;99.90
11221;DHT22;8517;53.546;10.104;2023-04-24T11:26:11;16.30;99.90
11221;DHT22;8517;53.546;10.104;2023-04-24T11:28:44;16.40;99.90
11221;DHT22;8517;53.546;10.104;2023-04-24T11:31:34;16.50;99.90
11221;DHT22;8517;53.546;10.104;2023-04-24T11:34:09;16.60;99.90
11221;DHT22;8517;53.546;10.104;2023-04-24T11:36:36;16.70;99.90
11221;DHT22;8517;53.546;10.104;2023-04-24T11:39:07;16.70;99.90
11221;DHT22;8517;53.546;10.104;2023-04-24T11:41:34;16.70;99.90
11221;DHT22;8517;53.546;10.104;2023-04-24T11:44:03;16.60;99.90
11221;DHT22;8517;53.546;10.104;2023-04-24T11:46:33;16.60;99.90
11221;DHT22;8517;53.546;10.104;2023-04-24T11:49:00;16.60;99.90
11221;DHT22;8517;53.546;10.104;2023-04-24T11:51:29;16.70;99.90
11221;DHT22;8517;53.546;10.104;2023-04-24T11:53:57;16.70;99.90
11221;DHT22;8517;53.546;10.104;2023-04-24T11:56:39;16.70;99.90
11221;DHT22;8517;53.546;10.104;2023-04-24T11:59:11;16.80;99.90
11221;DHT22;8517;53.546;10.104;2023-04-24T12:01:43;16.80;99.90
11221;DHT22;8517;53.546;10.104;2023-04-24T12:04:11;16.80;99.90
11221;DHT22;8517;53.546;10.104;2023-04-24T12:06:38;16.80;99.90
11221;DHT22;8517;53.546;10.104;2023-04-24T12:09:05;16.80;99.90
11221;DHT22;8517;53.546;10.104;2023-04-24T12:11:33;16.80;99.90
11221;DHT22;8517;53.546;10.104;2023-04-24T12:14:10;16.80;99.90
11221;DHT22;8517;53.546;10.104;2023-04-24T12:16:37;16.80;99.90
11221;DHT22;8517;53.546;10.104;2023-04-24T12:19:04;16.80;99.90
11221;DHT22;8517;53.546;10.104;2023-04-24T12:21:31;16.80;99.90
11221;DHT22;8517;53.546;10.104;2023-04-24T12:23:58;16.70;99.90
11221;DHT22;8517;53.546;10.104;2023-04-24T12:26:25;16.80;99.90
11221;DHT22;8517;53.546;10.104;2023-04-24T12:28:55;16.70;99.90
11221;DHT22;8517;53.546;10.104;2023-04-24T12:31:27;16.70;99.90
11221;DHT22;8517;53.546;10.104;2023-04-24T12:33:55;16.80;99.90
11221;DHT22;8517;53.546;10.104;2023-04-24T12:36:22;16.80;99.90
11221;DHT22;8517;53.546;10.104;2023-04-24T12:38:52;16.80;99.90
11221;DHT22;8517;53.546;10.104;2023-04-24T12:41:19;16.80;99.90
11221;DHT22;8517;53.546;10.104;2023-04-24T12:43:52;16.90;99.90
11221;DHT22;8517;53.546;10.104;2023-04-24T12:46:22;16.90;99.90
11221;DHT22;8517;53.546;10.104;2023-04-24T12:48:48;16.90;99.90
11221;DHT22;8517;53.546;10.104;2023-04-24T12:51:15;16.90;99.90
11221;DHT22;8517;53.546;10.104;2023-04-24T12:53:42;16.80;99.90
11221;DHT22;8517;53.546;10.104;2023-04-24T12:56:09;16.70;99.90
11221;DHT22;8517;53.546;10.104;2023-04-24T12:58:36;16.70;99.90
11221;DHT22;8517;53.546;10.104;2023-04-24T13:01:03;16.50;99.90
11221;DHT22;8517;53.546;10.104;2023-04-24T13:03:31;16.50;99.90
11221;DHT22;8517;53.546;10.104;2023-04-24T13:05:58;16.40;99.90
11221;DHT22;8517;53.546;10.104;2023-04-24T13:08:25;16.30;99.90
11221;DHT22;8517;53.546;10.104;2023-04-24T13:10:51;16.20;99.90
11221;DHT22;8517;53.546;10.104;2023-04-24T13:13:19;16.10;99.90
11221;DHT22;8517;53.546;10.104;2023-04-24T13:15:46;16.00;99.90
11221;DHT22;8517;53.546;10.104;2023-04-24T13:18:13;15.90;99.90
11221;DHT22;8517;53.546;10.104;2023-04-24T13:20:41;15.90;99.90
11221;DHT22;8517;53.546;10.104;2023-04-24T13:23:07;15.80;99.90
11221;DHT22;8517;53.546;10.104;2023-04-24T13:25:36;15.70;99.90
11221;DHT22;8517;53.546;10.104;2023-04-24T13:28:04;15.60;99.90
11221;DHT22;8517;53.546;10.104;2023-04-24T13:30:31;15.50;99.90
11221;DHT22;8517;53.546;10.104;2023-04-24T13:32:58;15.40;99.90
11221;DHT22;8517;53.546;10.104;2023-04-24T13:35:25;15.40;99.90
11221;DHT22;8517;53.546;10.104;2023-04-24T13:37:53;15.30;99.90
11221;DHT22;8517;53.546;10.104;2023-04-24T13:40:20;15.20;99.90
11221;DHT22;8517;53.546;10.104;2023-04-24T13:42:47;15.20;99.90
11221;DHT22;8517;53.546;10.104;2023-04-24T13:45:13;15.10;99.90
11221;DHT22;8517;53.546;10.104;2023-04-24T13:47:40;15.10;99.90
11221;DHT22;8517;53.546;10.104;2023-04-24T13:50:08;15.10;99.90
11221;DHT22;8517;53.546;10.104;2023-04-24T13:52:35;15.20;99.90
11221;DHT22;8517;53.546;10.104;2023-04-24T13:55:04;15.20;99.90
11221;DHT22;8517;53.546;10.104;2023-04-24T13:57:30;15.20;99.90
11221;DHT22;8517;53.546;10.104;2023-04-24T13:59:58;15.20;99.90
11221;DHT22;8517;53.546;10.104;2023-04-24T14:02:26;15.20;99.90
11221;DHT22;8517;53.546;10.104;2023-04-24T14:04:53;15.20;99.90
11221;DHT22;8517;53.546;10.104;2023-04-24T14:07:20;15.20;99.90
11221;DHT22;8517;53.546;10.104;2023-04-24T14:09:47;15.20;99.90
11221;DHT22;8517;53.546;10.104;2023-04-24T14:12:16;15.20;99.90
11221;DHT22;8517;53.546;10.104;2023-04-24T14:14:45;15.10;99.90
11221;DHT22;8517;53.546;10.104;2023-04-24T14:17:12;15.10;99.90
11221;DHT22;8517;53.546;10.104;2023-04-24T14:19:39;15.10;99.90
11221;DHT22;8517;53.546;10.104;2023-04-24T14:22:06;15.00;99.90
11221;DHT22;8517;53.546;10.104;2023-04-24T14:24:32;15.00;99.90
11221;DHT22;8517;53.546;10.104;2023-04-24T14:26:59;14.90;99.90
11221;DHT22;8517;53.546;10.104;2023-04-24T14:29:28;14.90;99.90
11221;DHT22;8517;53.546;10.104;2023-04-24T14:31:54;14.90;99.90
11221;DHT22;8517;53.546;10.104;2023-04-24T14:34:21;14.90;99.90
11221;DHT22;8517;53.546;10.104;2023-04-24T14:36:48;14.90;99.90
11221;DHT22;8517;53.546;10.104;2023-04-24T14:39:15;14.90;99.90
11221;DHT22;8517;53.546;10.104;2023-04-24T14:41:42;14.90;99.90
11221;DHT22;8517;53.546;10.104;2023-04-24T14:44:09;15.00;99.90
11221;DHT22;8517;53.546;10.104;2023-04-24T14:46:37;15.00;99.90
11221;DHT22;8517;53.546;10.104;2023-04-24T14:49:04;15.10;99.90
11221;DHT22;8517;53.546;10.104;2023-04-24T14:51:35;15.10;99.90
11221;DHT22;8517;53.546;10.104;2023-04-24T14:54:01;15.20;99.90
11221;DHT22;8517;53.546;10.104;2023-04-24T14:56:30;15.20;99.90
11221;DHT22;8517;53.546;10.104;2023-04-24T14:58:56;15.20;99.90
11221;DHT22;8517;53.546;10.104;2023-04-24T15:01:24;15.20;99.90
11221;DHT22;8517;53.546;10.104;2023-04-24T15:03:52;15.10;99.90
11221;DHT22;8517;53.546;10.104;2023-04-24T15:06:19;15.10;99.90
11221;DHT22;8517;53.546;10.104;2023-04-24T15:08:46;15.10;99.90
11221;DHT22;8517;53.546;10.104;2023-04-24T15:11:12;15.00;99.90
11221;DHT22;8517;53.546;10.104;2023-04-24T15:13:39;14.90;99.90
11221;DHT22;8517;53.546;10.104;2023-04-24T15:16:06;14.80;99.90
11221;DHT22;8517;53.546;10.104;2023-04-24T15:18:33;14.70;99.90
11221;DHT22;8517;53.546;10.104;2023-04-24T15:21:01;14.60;99.90
11221;DHT22;8517;53.546;10.104;2023-04-24T15:23:28;14.40;99.90
11221;DHT22;8517;53.546;10.104;2023-04-24T15:25:55;14.30;99.90
11221;DHT22;8517;53.546;10.104;2023-04-24T15:28:22;14.20;99.90
11221;DHT22;8517;53.546;10.104;2023-04-24T15:30:48;14.10;99.90
11221;DHT22;8517;53.546;10.104;2023-04-24T15:33:15;14.00;99.90
11221;DHT22;8517;53.546;10.104;2023-04-24T15:35:42;13.90;99.90